Time;durP1;ratioP1;P1;durP2;ratioP2;P2;SDS_P1;SDS_P2;PMS_P1;PMS_P2;Temp;Humidity;BMP_temperature;BMP_pressure;BME280_temperature;BME280_humidity;BME280_pressure;Samples;Min_cycle;Max_cycle;Signal;HPM_P1;HPM_P2
2023/06/21 00:01:05;;;;;;;18.62;14.60;;;;;;;18.70;69.48;100510.73;1772512;81;21362;-52
2023/06/21 00:04:10;;;;;;;17.20;14.10;;;;;;;18.67;69.59;100513.95;1772388;81;21867;-53
2023/06/21 00:07:15;;;;;;;15.30;13.70;;;;;;;18.64;69.62;100520.48;1772354;81;21883;-53
2023/06/21 00:10:28;;;;;;;20.08;14.23;;;;;;;18.63;69.77;100521.01;1751560;80;21389;-51
2023/06/21 00:13:30;;;;;;;19.92;14.70;;;;;;;18.62;69.91;100523.48;1772389;80;21362;-52
2023/06/21 00:16:36;;;;;;;17.95;14.60;;;;;;;18.60;69.99;100524.80;1772690;81;21370;-53
2023/06/21 00:19:42;;;;;;;18.23;14.60;;;;;;;18.56;70.02;100526.30;1772548;81;21374;-51
2023/06/21 00:22:55;;;;;;;18.42;15.43;;;;;;;18.54;70.13;100524.28;1772114;81;21350;-53
2023/06/21 00:25:57;;;;;;;16.52;14.45;;;;;;;18.51;70.21;100531.66;1772559;81;21359;-51
2023/06/21 00:29:03;;;;;;;22.00;14.75;;;;;;;18.47;70.23;100527.09;1772569;81;21354;-51
2023/06/21 00:32:09;;;;;;;17.60;15.28;;;;;;;18.43;70.25;100527.77;1772638;81;21358;-52
2023/06/21 00:35:15;;;;;;;18.62;14.75;;;;;;;18.37;70.27;100507.84;1772655;81;21426;-52
2023/06/21 00:38:21;;;;;;;16.32;14.43;;;;;;;18.34;70.37;100509.15;1772559;81;21394;-52
2023/06/21 00:41:27;;;;;;;16.52;14.40;;;;;;;18.32;70.54;100501.59;1772351;80;21378;-52
2023/06/21 00:44:33;;;;;;;18.25;14.58;;;;;;;18.30;70.67;100506.49;1772478;81;21370;-52
2023/06/21 00:47:40;;;;;;;16.82;15.08;;;;;;;18.27;70.75;100504.17;1735507;82;21737;-52
2023/06/21 00:50:48;;;;;;;16.90;15.18;;;;;;;18.25;70.85;100510.46;1735423;82;21271;-53
2023/06/21 00:53:56;;;;;;;16.80;15.10;;;;;;;18.26;71.01;100512.70;1735571;82;21279;-51
2023/06/21 00:57:01;;;;;;;16.50;14.85;;;;;;;18.25;71.18;100513.80;1735339;82;21192;-52
2023/06/21 01:00:10;;;;;;;16.70;14.80;;;;;;;18.24;71.33;100514.31;1735508;82;21268;-52
2023/06/21 01:03:16;;;;;;;16.48;14.83;;;;;;;18.25;71.34;100513.80;1735493;82;21346;-52
2023/06/21 01:06:25;;;;;;;20.50;15.58;;;;;;;18.21;71.29;100514.77;1735415;82;21189;-52
2023/06/21 01:09:42;;;;;;;18.30;15.30;;;;;;;18.22;71.34;100524.77;1735659;82;21744;-52
2023/06/21 01:13:19;;;;;;;18.57;15.55;;;;;;;18.21;71.45;100516.16;1735186;82;21792;-52
2023/06/21 01:16:25;;;;;;;19.45;15.10;;;;;;;18.22;71.61;100516.45;1735478;82;21216;-50
2023/06/21 01:19:54;;;;;;;16.97;14.95;;;;;;;18.22;71.76;100507.31;1735592;82;21220;-51
2023/06/21 01:23:23;;;;;;;19.12;15.28;;;;;;;18.23;71.84;100507.61;1735571;82;21204;-53
2023/06/21 01:27:07;;;;;;;18.17;15.28;;;;;;;18.22;71.92;100510.91;1735555;82;21201;-52
2023/06/21 01:30:15;;;;;;;21.33;16.42;;;;;;;18.21;71.91;100509.75;1735280;82;21231;-52
2023/06/21 01:33:20;;;;;;;16.55;14.85;;;;;;;18.16;71.88;100507.65;1735711;82;21224;-52
2023/06/21 01:36:26;;;;;;;18.10;16.23;;;;;;;18.16;72.04;100504.02;1735355;82;21259;-52
2023/06/21 01:39:36;;;;;;;18.90;15.83;;;;;;;18.18;72.27;100497.73;1735590;82;21240;-52
2023/06/21 01:42:42;;;;;;;20.08;15.43;;;;;;;18.19;72.32;100491.13;1735159;82;21729;-52
2023/06/21 01:45:49;;;;;;;21.60;15.70;;;;;;;18.19;72.37;100485.03;1735411;82;22172;-53
2023/06/21 01:48:56;;;;;;;16.97;15.28;;;;;;;18.19;72.45;100479.48;1773068;80;21381;-54
2023/06/21 01:52:08;;;;;;;17.20;15.15;;;;;;;18.20;72.49;100474.28;1772845;81;21394;-53
2023/06/21 01:55:13;;;;;;;17.12;15.28;;;;;;;18.20;72.50;100483.98;1772780;80;21374;-53
2023/06/21 01:58:20;;;;;;;19.42;16.32;;;;;;;18.19;72.47;100484.20;1772572;80;21369;-53
2023/06/21 02:01:26;;;;;;;19.45;15.75;;;;;;;18.17;72.46;100488.55;1772835;80;21339;-52
2023/06/21 02:04:33;;;;;;;19.00;15.85;;;;;;;18.17;72.49;100492.70;1772837;80;21856;-52
2023/06/21 02:07:39;;;;;;;19.20;16.12;;;;;;;18.18;72.59;100490.80;1772848;81;21366;-52
2023/06/21 02:10:46;;;;;;;18.87;15.68;;;;;;;18.19;72.72;100490.58;1772799;81;21406;-52
2023/06/21 02:13:55;;;;;;;18.57;15.43;;;;;;;18.22;72.83;100497.61;1772846;81;21963;-51
2023/06/21 02:17:00;;;;;;;18.32;15.68;;;;;;;18.23;72.90;100493.23;1772825;81;21351;-52
2023/06/21 02:20:12;;;;;;;19.92;15.72;;;;;;;18.22;72.85;100495.67;1772384;80;21382;-52
2023/06/21 02:23:13;;;;;;;20.43;16.30;;;;;;;18.22;72.86;100494.84;1772359;81;22034;-52
2023/06/21 02:26:19;;;;;;;23.30;17.07;;;;;;;18.23;72.97;100500.16;1772340;80;21248;-53
2023/06/21 02:29:25;;;;;;;17.98;16.05;;;;;;;18.25;73.14;100495.22;1772330;81;21374;-52
2023/06/21 02:32:32;;;;;;;19.87;16.50;;;;;;;18.27;73.23;100498.63;1772841;81;21390;-52
2023/06/21 02:35:37;;;;;;;19.23;16.02;;;;;;;18.30;73.32;100492.64;1772592;81;21359;-52
2023/06/21 02:38:44;;;;;;;23.35;16.95;;;;;;;18.33;73.47;100492.75;1772450;81;21388;-52
2023/06/21 02:41:51;;;;;;;19.90;15.65;;;;;;;18.35;73.55;100491.44;1772385;81;21864;-52
2023/06/21 02:44:58;;;;;;;17.77;15.83;;;;;;;18.40;73.67;100488.02;1772973;80;21371;-52
2023/06/21 02:48:04;;;;;;;22.32;17.20;;;;;;;18.47;73.71;100495.77;1769669;81;21379;-52
2023/06/21 02:51:12;;;;;;;18.65;16.17;;;;;;;18.52;73.78;100487.63;1772194;81;21367;-52
2023/06/21 02:54:18;;;;;;;19.70;16.02;;;;;;;18.56;73.85;100493.89;1772522;80;21864;-52
2023/06/21 02:57:24;;;;;;;20.17;15.65;;;;;;;18.60;73.85;100503.44;1772563;81;21824;-52
2023/06/21 03:00:33;;;;;;;19.45;15.45;;;;;;;18.63;73.82;100498.83;1772514;81;21363;-52
2023/06/21 03:03:43;;;;;;;17.15;14.38;;;;;;;18.68;73.85;100515.64;1772568;81;21390;-52
2023/06/21 03:06:51;;;;;;;16.45;14.75;;;;;;;18.69;73.89;100513.20;1772151;81;21452;-51
2023/06/21 03:09:57;;;;;;;16.17;14.47;;;;;;;18.70;73.96;100513.50;1772392;81;21343;-52
2023/06/21 03:13:04;;;;;;;18.10;14.35;;;;;;;18.76;74.07;100530.62;1772480;81;21350;-52
2023/06/21 03:16:13;;;;;;;18.23;13.55;;;;;;;18.81;74.10;100519.70;1771781;81;21366;-52
2023/06/21 03:19:21;;;;;;;17.10;14.23;;;;;;;18.87;74.18;100517.94;1772550;81;21401;-52
2023/06/21 03:22:28;;;;;;;17.55;14.30;;;;;;;18.93;74.17;100524.82;1772469;81;21859;-51
2023/06/21 03:25:37;;;;;;;16.85;14.23;;;;;;;19.00;74.05;100527.54;1772464;80;21398;-52
2023/06/21 03:28:42;;;;;;;16.82;14.58;;;;;;;19.04;74.02;100526.03;1772604;81;21389;-52
2023/06/21 03:31:47;;;;;;;20.02;14.15;;;;;;;19.10;74.04;100533.44;1772245;81;21335;-51
2023/06/21 03:34:54;;;;;;;18.00;14.73;;;;;;;19.13;74.03;100536.61;1772027;81;21346;-52
2023/06/21 03:38:00;;;;;;;19.23;15.50;;;;;;;19.21;74.05;100547.43;1772401;81;21386;-52
2023/06/21 03:41:06;;;;;;;16.80;14.98;;;;;;;19.27;74.11;100541.48;1754907;80;21350;-51
2023/06/21 03:44:13;;;;;;;17.90;14.80;;;;;;;19.34;74.19;100545.09;1772554;81;21433;-52
2023/06/21 03:47:18;;;;;;;18.00;16.10;;;;;;;19.39;74.15;100538.33;1772540;81;21375;-53
2023/06/21 03:50:24;;;;;;;18.27;15.32;;;;;;;19.46;74.10;100534.06;1765427;81;21311;-52
2023/06/21 03:53:30;;;;;;;19.15;16.20;;;;;;;19.47;74.03;100531.09;1767314;81;21213;-52
2023/06/21 03:56:38;;;;;;;18.35;15.53;;;;;;;19.52;74.04;100538.72;1767411;81;21188;-52
2023/06/21 03:59:37;;;;;;;20.27;15.88;;;;;;;19.54;74.03;100536.02;1766749;81;21220;-52
2023/06/21 04:02:45;;;;;;;21.20;16.50;;;;;;;19.55;74.13;100532.14;1777441;80;21343;-52
2023/06/21 04:05:52;;;;;;;18.30;15.63;;;;;;;19.57;73.96;100540.27;1798608;80;21409;-54
2023/06/21 04:08:57;;;;;;;16.45;14.70;;;;;;;19.58;73.99;100547.52;1798640;79;21425;-52
2023/06/21 04:12:04;;;;;;;16.48;14.78;;;;;;;19.61;74.08;100544.27;1798829;80;21376;-52
2023/06/21 04:15:12;;;;;;;15.93;14.33;;;;;;;19.68;74.31;100542.28;1798743;80;21351;-52
2023/06/21 04:18:18;;;;;;;19.87;14.25;;;;;;;19.75;74.38;100549.98;1798897;79;21335;-52
2023/06/21 04:21:25;;;;;;;16.25;14.55;;;;;;;19.83;74.52;100543.59;1793452;79;21418;-52
2023/06/21 04:24:30;;;;;;;15.00;13.40;;;;;;;19.91;74.50;100546.59;1756513;79;21365;-53
2023/06/21 04:27:40;;;;;;;16.12;14.43;;;;;;;19.99;74.52;100551.84;1749881;82;21381;-53
2023/06/21 04:30:45;;;;;;;17.15;13.28;;;;;;;20.08;74.56;100553.21;1750033;82;21365;-54
2023/06/21 04:33:53;;;;;;;14.68;13.15;;;;;;;20.18;74.61;100556.33;1750179;82;21353;-53
2023/06/21 04:37:05;;;;;;;16.77;13.62;;;;;;;20.26;74.54;100551.84;1750083;82;21385;-54
2023/06/21 04:40:08;;;;;;;14.35;12.82;;;;;;;20.34;74.57;100551.52;1750732;81;21353;-54
2023/06/21 04:43:15;;;;;;;15.23;12.37;;;;;;;20.42;74.59;100545.63;1750321;79;21280;-54
2023/06/21 04:46:23;;;;;;;14.58;12.95;;;;;;;20.51;74.62;100541.42;1764651;81;21770;-53
2023/06/21 04:49:30;;;;;;;18.10;13.20;;;;;;;20.60;74.66;100545.02;1749208;81;21259;-52
2023/06/21 04:52:41;;;;;;;15.90;13.08;;;;;;;20.72;74.70;100550.63;1770158;80;21382;-52
2023/06/21 04:55:44;;;;;;;15.93;13.28;;;;;;;20.79;74.59;100553.61;1779533;79;21332;-52
2023/06/21 04:58:49;;;;;;;14.55;13.05;;;;;;;20.87;74.58;100551.58;1787552;79;21306;-54
2023/06/21 05:01:56;;;;;;;18.30;14.15;;;;;;;20.93;74.58;100552.02;1771664;80;21378;-55
2023/06/21 05:05:02;;;;;;;14.87;13.35;;;;;;;21.03;74.65;100551.75;1769443;79;21228;-55
2023/06/21 05:08:08;;;;;;;15.25;13.50;;;;;;;21.15;74.63;100550.39;1781371;79;21330;-53
2023/06/21 05:11:14;;;;;;;16.48;13.85;;;;;;;21.23;74.62;100555.03;1779589;79;21331;-53
2023/06/21 05:14:14;;;;;;;16.10;14.23;;;;;;;21.37;74.63;100553.73;1803588;79;21354;-52
2023/06/21 05:17:29;;;;;;;16.80;15.05;;;;;;;21.49;74.60;100559.29;1795599;79;21409;-55
2023/06/21 05:20:35;;;;;;;16.45;14.78;;;;;;;21.60;74.55;100556.50;1777476;79;21180;-55
2023/06/21 05:23:42;;;;;;;19.77;16.20;;;;;;;21.71;74.57;100559.83;1781826;79;21247;-55
2023/06/21 05:26:47;;;;;;;18.62;16.62;;;;;;;21.83;74.52;100562.11;1784645;79;21440;-53
2023/06/21 05:29:54;;;;;;;17.20;15.50;;;;;;;21.96;74.50;100563.78;1793173;79;21829;-53
2023/06/21 05:33:01;;;;;;;18.57;16.05;;;;;;;22.08;74.47;100558.47;1803366;79;22022;-54
2023/06/21 05:36:09;;;;;;;18.17;16.25;;;;;;;22.22;74.42;100561.81;1798321;79;21736;-54
2023/06/21 05:39:14;;;;;;;19.00;17.00;;;;;;;22.32;74.34;100556.99;1800401;79;21910;-55
2023/06/21 05:42:21;;;;;;;18.77;16.35;;;;;;;22.41;74.27;100552.70;1797831;79;21370;-54
2023/06/21 05:45:28;;;;;;;21.10;18.20;;;;;;;22.53;74.28;100554.95;1797683;79;21382;-53
2023/06/21 05:48:35;;;;;;;19.35;17.37;;;;;;;22.65;74.20;100557.12;1788039;79;21410;-54
2023/06/21 05:51:41;;;;;;;21.25;18.60;;;;;;;22.76;74.18;100565.98;1762112;79;21357;-54
2023/06/21 05:54:48;;;;;;;20.12;16.97;;;;;;;22.82;74.02;100561.64;1760470;81;21363;-54
2023/06/21 05:57:55;;;;;;;23.32;18.42;;;;;;;22.88;74.05;100559.23;1760185;80;21350;-54
2023/06/21 06:01:03;;;;;;;21.77;18.12;;;;;;;22.97;73.95;100563.88;1759988;81;21321;-55
2023/06/21 06:04:09;;;;;;;21.20;18.87;;;;;;;22.99;73.88;100573.68;1760000;80;21335;-55
2023/06/21 06:07:19;;;;;;;24.18;19.07;;;;;;;23.07;73.95;100571.05;1771088;79;21680;-54
2023/06/21 06:10:23;;;;;;;20.65;18.48;;;;;;;23.12;73.94;100571.14;1801442;79;21958;-54
2023/06/21 06:13:29;;;;;;;20.35;18.25;;;;;;;23.17;73.96;100573.45;1786284;79;21343;-54
2023/06/21 06:16:35;;;;;;;21.70;18.80;;;;;;;23.21;73.98;100571.01;1793187;79;21374;-54
2023/06/21 06:19:40;;;;;;;21.75;18.65;;;;;;;23.24;73.97;100566.30;1798412;79;21420;-53
2023/06/21 06:22:47;;;;;;;21.73;19.37;;;;;;;23.25;73.94;100568.87;1802534;79;21378;-53
2023/06/21 06:25:54;;;;;;;21.70;18.82;;;;;;;23.30;73.97;100565.31;1782290;79;21247;-53
2023/06/21 06:29:01;;;;;;;22.22;19.10;;;;;;;23.37;73.98;100568.80;1796889;79;21382;-54
2023/06/21 06:32:07;;;;;;;20.60;18.52;;;;;;;23.47;74.05;100571.73;1770965;81;21374;-53
2023/06/21 06:35:15;;;;;;;26.35;20.85;;;;;;;23.56;73.96;100565.46;1771181;81;21406;-51
2023/06/21 06:38:21;;;;;;;20.60;18.07;;;;;;;23.66;73.84;100571.76;1779980;79;21439;-55
2023/06/21 06:41:28;;;;;;;22.58;17.77;;;;;;;23.71;73.76;100573.78;1803330;79;21381;-56
2023/06/21 06:44:37;;;;;;;19.02;16.48;;;;;;;23.75;73.69;100573.58;1803309;79;21395;-55
2023/06/21 06:47:36;;;;;;;19.27;17.12;;;;;;;23.80;73.65;100570.28;1763743;79;21291;-54
2023/06/21 06:50:30;;;;;;;20.95;18.67;;;;;;;23.89;73.71;100568.77;1745438;79;21343;-59
2023/06/21 06:53:25;;;;;;;18.87;16.85;;;;;;;24.00;73.71;100572.56;1800766;79;22211;-58
2023/06/21 06:56:31;;;;;;;20.23;15.85;;;;;;;24.05;73.64;100574.90;1805274;79;21438;-58
2023/06/21 06:59:37;;;;;;;17.48;15.60;;;;;;;24.10;73.42;100577.73;1770822;81;21875;-56
2023/06/21 07:02:44;;;;;;;17.85;15.95;;;;;;;24.14;73.33;100577.53;1791691;79;21954;-59
2023/06/21 07:05:55;;;;;;;16.97;15.23;;;;;;;24.22;73.36;100588.27;1780570;79;21390;-58
2023/06/21 07:09:03;;;;;;;;;;;;;;;24.30;73.35;100586.41;1804928;79;21860;-57
2023/06/21 07:12:09;;;;;;;18.75;16.85;;;;;;;24.37;73.26;100582.84;1787316;79;20213;-55
2023/06/21 07:15:16;;;;;;;22.27;16.82;;;;;;;24.43;73.15;100586.03;1803145;79;21366;-58
2023/06/21 07:18:25;;;;;;;21.75;17.90;;;;;;;24.45;72.96;100589.39;1777877;79;21223;-58
2023/06/21 07:21:32;;;;;;;20.70;17.45;;;;;;;24.50;72.89;100581.60;1778215;79;21355;-55
2023/06/21 07:24:38;;;;;;;18.80;16.90;;;;;;;24.58;72.87;100587.59;1776822;79;21910;-58
2023/06/21 07:27:46;;;;;;;18.50;16.48;;;;;;;24.68;72.74;100593.35;1797335;79;21864;-57
2023/06/21 07:30:53;;;;;;;19.17;16.15;;;;;;;24.75;72.58;100599.58;1770375;81;21666;-57
2023/06/21 07:34:02;;;;;;;20.40;16.82;;;;;;;24.82;72.47;100597.97;1774613;79;21205;-56
2023/06/21 07:37:08;;;;;;;18.95;17.02;;;;;;;24.89;72.33;100584.03;1763907;79;22079;-56
2023/06/21 07:40:16;;;;;;;19.98;17.73;;;;;;;25.00;72.33;100584.46;1779918;79;21734;-58
2023/06/21 07:43:16;;;;;;;19.85;17.32;;;;;;;25.07;72.23;100591.22;1788884;79;21212;-57
2023/06/21 07:46:22;;;;;;;21.00;18.82;;;;;;;25.10;72.00;100590.72;1778125;79;21259;-56
2023/06/21 07:49:27;;;;;;;19.23;17.17;;;;;;;25.14;71.91;100585.41;1785915;79;21169;-60
2023/06/21 07:52:34;;;;;;;25.17;19.27;;;;;;;25.22;71.71;100590.52;1753435;81;21284;-57
2023/06/21 07:55:40;;;;;;;19.35;17.45;;;;;;;25.29;71.57;100588.36;1771225;79;21361;-57
2023/06/21 07:58:48;;;;;;;20.55;18.35;;;;;;;25.36;71.42;100584.24;1778197;79;21390;-54
2023/06/21 08:01:54;;;;;;;20.95;18.75;;;;;;;25.42;71.25;100585.97;1772076;79;21193;-56
2023/06/21 08:05:01;;;;;;;19.00;16.70;;;;;;;25.50;71.15;100593.06;1800676;79;21333;-58
2023/06/21 08:08:07;;;;;;;18.67;16.77;;;;;;;25.59;71.10;100587.23;1803137;79;21485;-56
2023/06/21 08:11:15;;;;;;;17.92;16.00;;;;;;;25.64;70.98;100587.28;1793138;79;21364;-56
2023/06/21 08:14:20;;;;;;;17.65;15.85;;;;;;;25.72;70.92;100596.59;1787888;79;21382;-56
2023/06/21 08:17:25;;;;;;;17.32;15.38;;;;;;;25.82;70.70;100596.64;1764258;79;21220;-55
2023/06/21 08:20:33;;;;;;;20.92;16.02;;;;;;;25.91;70.46;100599.25;1780660;79;21192;-56
2023/06/21 08:23:40;;;;;;;18.05;15.25;;;;;;;25.85;70.22;100594.70;1768374;79;21225;-57
2023/06/21 08:26:46;;;;;;;18.00;15.63;;;;;;;25.92;70.08;100591.96;1795714;79;21800;-57
2023/06/21 08:29:51;;;;;;;21.55;15.45;;;;;;;26.04;69.93;100588.95;1801654;79;21401;-58
2023/06/21 08:32:58;;;;;;;19.77;16.95;;;;;;;26.16;69.74;100584.81;1772017;79;21243;-56
2023/06/21 08:36:06;;;;;;;20.40;16.30;;;;;;;26.32;69.60;100587.98;1782569;79;21773;-58
2023/06/21 08:39:12;;;;;;;17.65;15.32;;;;;;;26.48;69.42;100587.52;1797609;78;21797;-54
2023/06/21 08:42:17;;;;;;;16.75;15.05;;;;;;;26.69;69.26;100589.86;1791089;79;21228;-55
2023/06/21 08:45:24;;;;;;;18.20;16.30;;;;;;;26.85;68.98;100585.39;1773176;79;21217;-54
2023/06/21 08:48:31;;;;;;;18.67;16.12;;;;;;;26.90;68.60;100588.22;1793458;79;21161;-53
2023/06/21 08:51:36;;;;;;;20.02;14.68;;;;;;;26.88;68.31;100593.84;1800480;79;21741;-54
2023/06/21 08:54:43;;;;;;;17.70;14.58;;;;;;;26.86;68.13;100591.87;1781424;79;21782;-54
2023/06/21 08:57:58;;;;;;;27.90;14.05;;;;;;;26.96;67.88;100589.91;1801999;79;21192;-54
2023/06/21 09:01:06;;;;;;;20.12;14.20;;;;;;;27.14;67.66;100579.55;1797255;79;21345;-53
2023/06/21 09:04:15;;;;;;;20.52;14.85;;;;;;;27.40;67.50;100579.03;1770639;79;21211;-54
2023/06/21 09:07:21;;;;;;;16.65;14.95;;;;;;;27.58;67.23;100576.48;1770804;81;21354;-54
2023/06/21 09:10:29;;;;;;;15.93;14.25;;;;;;;27.70;66.94;100576.20;1771833;79;21326;-54
2023/06/21 09:13:35;;;;;;;16.23;14.15;;;;;;;27.73;66.52;100578.45;1802500;79;21366;-54
2023/06/21 09:16:41;;;;;;;16.15;13.95;;;;;;;27.69;66.00;100572.53;1777112;79;21236;-56
2023/06/21 09:19:48;;;;;;;14.47;12.90;;;;;;;27.76;65.68;100582.95;1775115;79;21346;-51
2023/06/21 09:22:55;;;;;;;15.00;13.10;;;;;;;27.86;65.41;100567.98;1769690;81;21216;-53
2023/06/21 09:26:01;;;;;;;13.98;12.50;;;;;;;27.95;65.13;100564.06;1770240;81;21197;-52
2023/06/21 09:29:07;;;;;;;14.80;12.40;;;;;;;28.05;65.01;100566.28;1780151;79;21993;-52
2023/06/21 09:32:13;;;;;;;17.87;12.63;;;;;;;28.21;64.81;100557.23;1766635;81;21334;-52
2023/06/21 09:35:19;;;;;;;15.45;12.33;;;;;;;28.28;64.42;100556.34;1760902;80;21796;-53
2023/06/21 09:38:33;;;;;;;15.35;12.28;;;;;;;28.27;64.09;100553.27;1764243;79;21399;-52
2023/06/21 09:41:39;;;;;;;15.65;11.97;;;;;;;28.22;63.80;100546.24;1760366;80;21173;-51
2023/06/21 09:44:45;;;;;;;13.13;11.40;;;;;;;28.11;63.47;100542.63;1761729;80;21764;-53
2023/06/21 09:47:54;;;;;;;12.15;10.70;;;;;;;28.03;63.24;100534.78;1746501;81;21966;-50
2023/06/21 09:51:04;;;;;;;15.80;11.70;;;;;;;28.04;62.89;100534.19;1761955;81;21233;-51
2023/06/21 09:54:13;;;;;;;12.43;11.03;;;;;;;28.01;62.64;100537.58;1760978;81;21765;-51
2023/06/21 09:57:19;;;;;;;13.65;11.57;;;;;;;28.10;62.45;100545.73;1743230;79;21219;-53
2023/06/21 10:00:31;;;;;;;13.53;11.15;;;;;;;28.09;62.10;100546.84;1780731;79;21343;-47
2023/06/21 10:03:38;;;;;;;13.10;10.80;;;;;;;28.03;61.83;100536.73;1784641;79;21347;-48
2023/06/21 10:06:46;;;;;;;11.25;9.85;;;;;;;28.12;61.72;100530.78;1744988;79;21795;-49
2023/06/21 10:09:55;;;;;;;15.10;9.80;;;;;;;28.29;61.40;100527.08;1769963;80;21367;-50
2023/06/21 10:13:01;;;;;;;11.15;8.95;;;;;;;28.45;61.19;100530.06;1769993;81;21362;-48
2023/06/21 10:16:10;;;;;;;10.48;9.20;;;;;;;28.58;60.67;100533.14;1770809;80;21391;-49
2023/06/21 10:19:33;;;;;;;11.35;9.50;;;;;;;28.76;60.49;100524.58;1754762;80;21386;-49
2023/06/21 10:22:40;;;;;;;11.43;10.13;;;;;;;28.88;59.95;100523.64;1769102;80;21729;-49
2023/06/21 10:25:46;;;;;;;11.35;10.08;;;;;;;28.79;59.37;100514.98;1765515;81;22030;-48
2023/06/21 10:28:52;;;;;;;12.60;10.40;;;;;;;28.68;59.03;100511.95;1776076;79;21219;-48
2023/06/21 10:31:58;;;;;;;11.83;10.60;;;;;;;28.83;59.00;100516.62;1785055;79;21899;-49
2023/06/21 10:35:13;;;;;;;13.50;10.85;;;;;;;29.11;58.83;100513.08;1787869;79;21430;-53
2023/06/21 10:38:27;;;;;;;14.43;11.18;;;;;;;29.34;58.40;100515.68;1705426;84;21287;-50
2023/06/21 10:41:35;;;;;;;11.97;10.58;;;;;;;29.43;57.93;100517.56;1744333;81;21479;-48
2023/06/21 10:44:41;;;;;;;12.88;10.15;;;;;;;29.55;57.62;100523.67;1725334;82;21384;-48
2023/06/21 10:47:48;;;;;;;12.63;10.15;;;;;;;29.92;56.63;100543.62;1786248;80;21738;-50
2023/06/21 10:50:53;;;;;;;12.25;10.75;;;;;;;29.92;56.63;100543.62;1787237;80;21292;-47
2023/06/21 10:54:00;;;;;;;14.07;10.32;;;;;;;29.83;56.16;100543.16;1792017;79;21880;-48
2023/06/21 10:57:07;;;;;;;13.00;10.85;;;;;;;29.64;55.60;100545.90;1801907;79;21370;-48
2023/06/21 11:00:17;;;;;;;12.50;10.03;;;;;;;29.42;55.17;100553.13;1790609;79;21368;-48
2023/06/21 11:03:29;;;;;;;12.95;10.82;;;;;;;29.33;54.92;100550.13;1773978;80;21354;-48
2023/06/21 11:06:38;;;;;;;13.05;10.15;;;;;;;29.34;54.68;100553.77;1756067;81;21204;-48
2023/06/21 11:09:44;;;;;;;17.85;10.20;;;;;;;29.26;54.11;100557.24;1771388;80;21378;-48
2023/06/21 11:12:51;;;;;;;12.28;8.83;;;;;;;29.26;54.11;100557.24;1793137;79;21854;-49
2023/06/21 11:15:58;;;;;;;8.55;7.03;;;;;;;29.18;53.82;100568.00;1761353;79;21803;-48
2023/06/21 11:19:04;;;;;;;11.57;7.87;;;;;;;28.82;52.86;100574.14;1802678;79;21374;-49
2023/06/21 11:22:27;;;;;;;9.20;5.60;;;;;;;27.91;51.88;100620.08;1776275;79;21176;-47
2023/06/21 11:25:33;;;;;;;13.38;6.08;;;;;;;27.91;51.88;100620.08;1770046;79;21220;-48
2023/06/21 11:28:41;;;;;;;7.42;5.85;;;;;;;27.43;51.78;100613.04;1770957;79;21222;-48
2023/06/21 11:31:47;;;;;;;8.68;6.08;;;;;;;27.07;51.74;100625.34;1771103;79;21687;-47
2023/06/21 11:35:04;;;;;;;14.30;6.40;;;;;;;26.70;51.59;100623.30;1768615;80;21232;-46
2023/06/21 11:38:11;;;;;;;9.25;6.67;;;;;;;26.35;51.48;100620.30;1770025;81;21362;-48
2023/06/21 11:41:43;;;;;;;9.20;6.97;;;;;;;26.07;51.55;100611.72;1769991;80;21346;-48
2023/06/21 11:44:49;;;;;;;10.68;7.28;;;;;;;25.80;51.53;100605.33;1768908;79;21773;-46
2023/06/21 11:48:18;;;;;;;8.03;6.17;;;;;;;25.56;51.89;100590.58;1757207;81;21491;-47
2023/06/21 11:51:24;;;;;;;11.20;6.50;;;;;;;25.42;52.15;100599.16;1754418;80;21191;-47
2023/06/21 11:54:42;;;;;;;7.40;6.50;;;;;;;25.25;52.23;100620.27;1778488;79;21367;-47
2023/06/21 11:57:53;;;;;;;14.28;6.70;;;;;;;25.11;52.39;100655.45;1794654;79;21459;-47
2023/06/21 12:00:59;;;;;;;13.98;7.10;;;;;;;24.99;52.59;100671.00;1734007;81;21243;-47
2023/06/21 12:04:06;;;;;;;9.75;6.10;;;;;;;24.83;52.81;100682.31;1741521;81;21205;-48
2023/06/21 12:07:16;;;;;;;10.23;7.20;;;;;;;24.53;52.71;100702.89;1748865;81;21718;-47
2023/06/21 12:10:24;;;;;;;9.68;7.28;;;;;;;24.16;52.92;100701.23;1748665;81;21241;-47
2023/06/21 12:13:31;;;;;;;14.23;9.93;;;;;;;23.98;53.24;100697.84;1760236;81;21867;-49
2023/06/21 12:16:40;;;;;;;9.33;7.33;;;;;;;23.80;53.46;100680.73;1738493;81;21230;-48
2023/06/21 12:19:45;;;;;;;10.00;8.05;;;;;;;23.63;53.67;100684.95;1745641;81;21925;-48
2023/06/21 12:22:56;;;;;;;13.08;7.90;;;;;;;23.50;53.88;100680.23;1729325;81;21350;-48
2023/06/21 12:26:12;;;;;;;11.63;8.78;;;;;;;23.36;54.01;100671.33;1729849;82;21925;-49
2023/06/21 12:29:18;;;;;;;10.65;7.75;;;;;;;23.31;54.34;100658.66;1730093;81;21296;-49
2023/06/21 12:32:27;;;;;;;11.90;9.48;;;;;;;23.38;54.65;100655.71;1750264;81;21342;-49
2023/06/21 12:35:32;;;;;;;12.80;8.00;;;;;;;23.50;54.80;100659.27;1757661;81;21186;-49
2023/06/21 12:38:38;;;;;;;10.28;8.40;;;;;;;23.62;54.91;100661.45;1758583;81;21865;-48
2023/06/21 12:41:46;;;;;;;12.15;8.15;;;;;;;23.80;55.10;100654.75;1740316;81;21724;-48
2023/06/21 12:44:52;;;;;;;11.25;7.70;;;;;;;24.06;55.30;100659.10;1721779;82;21442;-48
2023/06/21 12:47:58;;;;;;;9.75;7.40;;;;;;;24.31;55.57;100652.46;1734774;81;21365;-48
2023/06/21 12:51:03;;;;;;;11.12;8.10;;;;;;;24.58;55.83;100653.39;1761589;80;21880;-47
2023/06/21 12:54:21;;;;;;;10.48;8.25;;;;;;;24.80;56.04;100660.43;1759669;80;21356;-48
2023/06/21 12:57:37;;;;;;;8.60;6.97;;;;;;;25.04;56.25;100651.45;1752256;80;21350;-48
2023/06/21 13:00:43;;;;;;;8.23;7.00;;;;;;;25.36;56.29;100661.34;1763792;79;21200;-48
2023/06/21 13:03:54;;;;;;;8.95;6.83;;;;;;;25.57;56.22;100649.20;1774729;79;21240;-48
2023/06/21 13:07:08;;;;;;;7.20;6.45;;;;;;;25.74;56.22;100653.24;1762160;78;22166;-49
2023/06/21 13:10:15;;;;;;;10.53;7.22;;;;;;;25.94;56.22;100645.00;1768213;79;21276;-56
2023/06/21 13:13:23;;;;;;;8.53;7.08;;;;;;;26.14;56.21;100637.59;1769141;80;21266;-52
2023/06/21 13:16:30;;;;;;;9.53;7.10;;;;;;;26.31;56.22;100637.39;1768782;80;21220;-55
2023/06/21 13:19:38;;;;;;;10.20;7.58;;;;;;;26.48;56.14;100637.48;1762446;80;21713;-54
2023/06/21 13:22:45;;;;;;;10.35;7.25;;;;;;;26.64;56.04;100634.20;1766778;80;21247;-58
2023/06/21 13:25:51;;;;;;;7.72;6.87;;;;;;;26.76;55.76;100637.64;1760130;80;21215;-55
2023/06/21 13:28:58;;;;;;;11.93;6.55;;;;;;;26.82;55.56;100646.36;1759964;80;21227;-58
2023/06/21 13:32:08;;;;;;;10.32;6.90;;;;;;;26.88;55.37;100653.68;1771210;79;21208;-54
2023/06/21 13:35:16;;;;;;;8.38;7.03;;;;;;;26.95;55.22;100650.06;1782574;79;21189;-53
2023/06/21 13:38:22;;;;;;;8.60;6.92;;;;;;;27.06;55.14;100656.55;1801009;79;21411;-55
2023/06/21 13:41:29;;;;;;;8.75;6.97;;;;;;;27.15;54.97;100666.97;1801310;79;21327;-54
2023/06/21 13:44:35;;;;;;;8.23;7.05;;;;;;;27.18;54.65;100669.80;1792394;80;21854;-55
2023/06/21 13:47:40;;;;;;;9.33;7.00;;;;;;;27.15;54.30;100669.78;1772102;79;21683;-55
2023/06/21 13:50:48;;;;;;;10.80;6.65;;;;;;;27.14;54.07;100672.87;1782561;79;21224;-55
2023/06/21 13:53:56;;;;;;;10.25;7.42;;;;;;;27.16;53.93;100671.45;1739870;81;21402;-53
2023/06/21 13:57:03;;;;;;;10.45;7.00;;;;;;;27.24;53.97;100672.32;1776886;79;21892;-53
2023/06/21 14:00:16;;;;;;;9.85;6.72;;;;;;;27.42;53.88;100670.42;1781888;79;21191;-54
2023/06/21 14:03:18;;;;;;;9.18;6.45;;;;;;;27.51;53.67;100675.77;1771667;79;21251;-53
2023/06/21 14:06:25;;;;;;;16.37;12.20;;;;;;;27.53;53.41;100671.27;1786142;79;21188;-56
2023/06/21 14:09:33;;;;;;;8.63;7.00;;;;;;;27.60;53.29;100676.08;1790408;79;21284;-55
2023/06/21 14:12:41;;;;;;;8.63;6.92;;;;;;;27.63;53.12;100673.55;1765162;80;21593;-55
2023/06/21 14:15:47;;;;;;;9.63;6.90;;;;;;;27.69;53.01;100663.98;1764636;81;21181;-55